Warton, Warton Aerodrome (EGNO)

NameWarton Aerodrome
CityWarton
CountryUnited Kingdom
ICAOEGNO
IATA
Altitude5 m
CoordinatesGoogle Map
Live Air TrafficLiveATC.net
METAREGNO 271250Z 31013KT 9999 SCT021 06/01 Q1003
2020-02-27 12:50:00 Wind: West-Northwest (310°) 6.69 m/s - Visibility: > 10000 m - Temperature: 6 °C - Dew point: 1 °C - Humidity: 70.6% - Pressure: 1003 hPa

Sorry, no flights used the airport in this database.